createdAt,value
2018-06-19T00:00:31.891Z,4.40
2018-06-19T00:01:31.951Z,3.90
2018-06-19T00:02:32.013Z,4.20
2018-06-19T00:03:32.073Z,4.10
2018-06-19T00:04:32.132Z,4.10
2018-06-19T00:05:32.192Z,3.80
2018-06-19T00:06:32.253Z,4.20
2018-06-19T00:07:32.312Z,3.80
2018-06-19T00:08:32.377Z,4.10
2018-06-19T00:09:32.434Z,4.10
2018-06-19T00:10:32.495Z,3.70
2018-06-19T00:11:32.557Z,4.10
2018-06-19T00:12:32.614Z,3.80
2018-06-19T00:13:32.674Z,3.80
2018-06-19T00:14:32.735Z,3.70
2018-06-19T00:15:32.794Z,3.60
2018-06-19T00:16:32.855Z,3.90
2018-06-19T00:17:32.915Z,3.80
2018-06-19T00:18:32.976Z,3.90
2018-06-19T00:19:33.036Z,4.20
2018-06-19T00:20:33.095Z,3.70
2018-06-19T00:21:33.156Z,3.60
2018-06-19T00:22:33.216Z,3.80
2018-06-19T00:23:33.275Z,3.80
2018-06-19T00:24:33.335Z,4.00
2018-06-19T00:25:33.396Z,3.70
2018-06-19T00:26:33.457Z,3.60
2018-06-19T00:27:33.518Z,3.50
2018-06-19T00:28:33.576Z,3.40
2018-06-19T00:29:33.641Z,3.90
2018-06-19T00:30:33.698Z,3.70
2018-06-19T00:31:33.772Z,3.70
2018-06-19T00:32:33.817Z,3.30
2018-06-19T00:33:33.877Z,3.70
2018-06-19T00:34:33.938Z,3.90
2018-06-19T00:35:33.997Z,4.00
2018-06-19T00:36:34.060Z,4.00
2018-06-19T00:37:34.118Z,4.00
2018-06-19T00:38:34.178Z,3.80
2018-06-19T00:39:34.242Z,3.90
2018-06-19T00:40:34.301Z,3.50
2018-06-19T00:41:34.367Z,3.70
2018-06-19T00:42:34.419Z,4.20
2018-06-19T00:43:34.478Z,4.20
2018-06-19T00:44:34.538Z,4.30
2018-06-19T00:45:34.599Z,4.30
2018-06-19T00:46:34.659Z,3.90
2018-06-19T00:47:34.719Z,4.10
2018-06-19T00:48:34.779Z,3.80
2018-06-19T00:49:34.840Z,3.80
2018-06-19T00:50:34.900Z,3.70
2018-06-19T00:51:34.960Z,4.00
2018-06-19T00:52:35.021Z,3.80
2018-06-19T00:53:35.080Z,3.90
2018-06-19T00:54:35.141Z,3.40
2018-06-19T00:55:35.205Z,3.70
2018-06-19T00:56:35.296Z,3.40
2018-06-19T00:57:35.323Z,3.40
2018-06-19T00:58:35.382Z,3.60
2018-06-19T00:59:35.440Z,3.60
2018-06-19T01:00:35.502Z,3.90
2018-06-19T01:01:35.563Z,3.60
2018-06-19T01:02:35.623Z,4.30
2018-06-19T01:03:35.682Z,3.90
2018-06-19T01:04:35.744Z,3.50
2018-06-19T01:05:35.803Z,3.50
2018-06-19T01:06:35.863Z,3.50
2018-06-19T01:07:35.922Z,3.80
2018-06-19T01:08:35.983Z,3.90
2018-06-19T01:09:36.044Z,4.00
2018-06-19T01:10:36.104Z,3.60
2018-06-19T01:11:36.164Z,3.50
2018-06-19T01:12:36.224Z,3.90
2018-06-19T01:13:36.284Z,3.20
2018-06-19T01:14:36.345Z,3.70
2018-06-19T01:15:36.404Z,3.60
2018-06-19T01:16:36.464Z,3.70
2018-06-19T01:17:36.524Z,3.70
2018-06-19T01:18:36.585Z,3.80
2018-06-19T01:19:36.644Z,3.80
2018-06-19T01:20:36.707Z,3.60
2018-06-19T01:21:36.764Z,3.90
2018-06-19T01:22:36.827Z,3.80
2018-06-19T01:23:36.889Z,3.80
2018-06-19T01:24:36.977Z,3.80
2018-06-19T01:25:37.007Z,3.80
2018-06-19T01:26:37.067Z,3.70
2018-06-19T01:27:37.136Z,3.50
2018-06-19T01:28:37.227Z,3.50
2018-06-19T01:29:37.254Z,3.80
2018-06-19T01:30:37.306Z,4.00
2018-06-19T01:31:37.365Z,3.70
2018-06-19T01:32:37.425Z,3.50
2018-06-19T01:33:37.485Z,3.60
2018-06-19T01:34:37.545Z,3.60
2018-06-19T01:35:37.605Z,3.80
2018-06-19T01:36:37.666Z,3.90
2018-06-19T01:37:37.724Z,3.60
2018-06-19T01:38:37.785Z,3.90
2018-06-19T01:39:37.844Z,3.60
2018-06-19T01:40:37.903Z,3.80
2018-06-19T01:41:37.969Z,3.60
2018-06-19T01:42:38.025Z,3.80
2018-06-19T01:43:38.084Z,4.10
2018-06-19T01:44:38.145Z,4.20
2018-06-19T01:45:38.205Z,3.60
2018-06-19T01:46:38.265Z,3.70
2018-06-19T01:47:38.475Z,3.70
2018-06-19T01:48:38.384Z,3.60
2018-06-19T01:49:38.447Z,3.50
2018-06-19T01:50:38.504Z,3.90
2018-06-19T01:51:38.564Z,3.60
2018-06-19T01:52:38.624Z,3.40
2018-06-19T01:53:45.800Z,3.60
2018-06-19T01:54:38.746Z,3.60
2018-06-19T01:55:38.805Z,3.50
2018-06-19T01:56:38.864Z,3.50
2018-06-19T01:57:38.924Z,3.70
2018-06-19T01:58:38.984Z,3.80
2018-06-19T01:59:39.043Z,3.50
2018-06-19T02:00:39.104Z,3.60
2018-06-19T02:01:39.163Z,3.60
2018-06-19T02:02:39.224Z,3.40
2018-06-19T02:03:39.284Z,3.90
2018-06-19T02:04:39.344Z,3.40
2018-06-19T02:05:39.404Z,3.30
2018-06-19T02:06:39.464Z,3.90
2018-06-19T02:07:39.522Z,3.50
2018-06-19T02:08:39.583Z,3.60
2018-06-19T02:09:39.643Z,3.60
2018-06-19T02:10:39.703Z,3.60
2018-06-19T02:11:39.763Z,3.80
2018-06-19T02:12:39.823Z,3.90
2018-06-19T02:13:39.888Z,3.40
2018-06-19T02:14:39.943Z,3.70
2018-06-19T02:15:40.003Z,3.50
2018-06-19T02:16:40.062Z,3.50
2018-06-19T02:17:40.123Z,3.20
2018-06-19T02:18:40.182Z,3.70
2018-06-19T02:19:40.241Z,3.30
2018-06-19T02:20:40.301Z,3.60
2018-06-19T02:21:40.362Z,3.80
2018-06-19T02:22:40.424Z,3.70
2018-06-19T02:23:40.485Z,4.50
2018-06-19T02:24:40.541Z,3.90
2018-06-19T02:25:40.599Z,3.40
2018-06-19T02:26:40.661Z,3.60
2018-06-19T02:27:40.720Z,3.40
2018-06-19T02:28:40.784Z,3.10
2018-06-19T02:29:40.841Z,3.60
2018-06-19T02:30:40.901Z,3.80
2018-06-19T02:31:40.959Z,4.10
2018-06-19T02:32:41.019Z,3.50
2018-06-19T02:33:41.079Z,3.30
2018-06-19T02:34:41.140Z,3.50
2018-06-19T02:35:41.199Z,3.60
2018-06-19T02:36:41.261Z,3.30
2018-06-19T02:37:41.320Z,3.40
2018-06-19T02:38:41.378Z,4.80
2018-06-19T02:39:41.439Z,3.50
2018-06-19T02:40:41.501Z,3.70
2018-06-19T02:41:41.561Z,3.80
2018-06-19T02:42:41.618Z,3.70
2018-06-19T02:43:41.676Z,4.00
2018-06-19T02:44:41.737Z,3.70
2018-06-19T02:45:41.797Z,3.40
2018-06-19T02:46:41.854Z,3.50
2018-06-19T02:47:41.916Z,3.80
2018-06-19T02:48:41.975Z,3.20
2018-06-19T02:49:42.035Z,3.50
2018-06-19T02:50:42.095Z,3.20
2018-06-19T02:51:42.404Z,3.40
2018-06-19T02:52:42.214Z,3.30
2018-06-19T02:53:42.274Z,3.20
2018-06-19T02:54:42.334Z,3.40
2018-06-19T02:55:42.392Z,3.30
2018-06-19T02:56:42.452Z,3.50
2018-06-19T02:57:42.512Z,3.40
2018-06-19T02:58:42.573Z,3.30
2018-06-19T02:59:42.632Z,3.10
2018-06-19T03:00:42.691Z,3.30
2018-06-19T03:01:42.751Z,3.70
2018-06-19T03:02:42.811Z,3.30
2018-06-19T03:03:42.872Z,3.20
2018-06-19T03:04:42.933Z,3.40
2018-06-19T03:05:42.990Z,3.20
2018-06-19T03:06:43.050Z,3.80
2018-06-19T03:07:43.108Z,3.60
2018-06-19T03:08:43.168Z,3.60
2018-06-19T03:09:43.229Z,3.80
2018-06-19T03:10:43.317Z,3.10
2018-06-19T03:11:43.349Z,3.50
2018-06-19T03:12:43.407Z,3.40
2018-06-19T03:13:43.468Z,3.20
2018-06-19T03:14:43.527Z,3.60
2018-06-19T03:15:43.586Z,3.10
2018-06-19T03:16:43.646Z,3.40
2018-06-19T03:17:43.705Z,3.60
2018-06-19T03:18:43.766Z,3.60
2018-06-19T03:19:43.824Z,3.30
2018-06-19T03:20:43.885Z,3.40
2018-06-19T03:21:43.946Z,3.10
2018-06-19T03:22:44.005Z,3.90
2018-06-19T03:23:44.063Z,3.20
2018-06-19T03:24:44.126Z,3.30
2018-06-19T03:25:44.183Z,3.20
2018-06-19T03:26:44.243Z,3.10
2018-06-19T03:27:44.302Z,3.50
2018-06-19T03:28:44.362Z,3.40
2018-06-19T03:29:44.424Z,3.80
2018-06-19T03:30:44.509Z,3.60
2018-06-19T03:31:44.541Z,3.40
2018-06-19T03:32:44.602Z,3.30
2018-06-19T03:33:44.667Z,3.60
2018-06-19T03:34:44.720Z,3.10
2018-06-19T03:35:44.780Z,3.50
2018-06-19T03:36:44.839Z,3.10
2018-06-19T03:37:44.898Z,3.70
2018-06-19T03:38:44.959Z,3.50
2018-06-19T03:39:45.018Z,3.30
2018-06-19T03:40:45.078Z,3.30
2018-06-19T03:41:45.138Z,3.10
2018-06-19T03:42:45.197Z,3.30
2018-06-19T03:43:45.256Z,3.70
2018-06-19T03:44:45.316Z,3.40
2018-06-19T03:45:45.418Z,3.80
2018-06-19T03:46:45.436Z,3.40
2018-06-19T03:47:45.495Z,3.80
2018-06-19T03:48:45.554Z,3.90
2018-06-19T03:49:45.614Z,3.60
2018-06-19T03:50:45.674Z,3.40
2018-06-19T03:51:45.733Z,3.40
2018-06-19T03:52:45.793Z,3.60
2018-06-19T03:53:45.855Z,3.40
2018-06-19T03:54:45.914Z,3.10
2018-06-19T03:55:46.301Z,3.20
2018-06-19T03:56:46.032Z,3.60
2018-06-19T03:57:46.093Z,3.70
2018-06-19T03:58:46.152Z,3.10
2018-06-19T03:59:46.211Z,3.40
2018-06-19T04:00:46.270Z,3.60
2018-06-19T04:01:46.330Z,3.70
2018-06-19T04:02:46.390Z,3.50
2018-06-19T04:03:46.449Z,3.10
2018-06-19T04:04:46.509Z,3.70
2018-06-19T04:05:46.569Z,3.40
2018-06-19T04:06:46.628Z,3.40
2018-06-19T04:07:46.691Z,3.60
2018-06-19T04:08:46.748Z,3.50
2018-06-19T04:09:46.807Z,3.40
2018-06-19T04:10:46.867Z,4.00
2018-06-19T04:11:46.926Z,3.90
2018-06-19T04:12:46.986Z,3.50
2018-06-19T04:13:47.049Z,4.00
2018-06-19T04:14:51.361Z,3.30
2018-06-19T04:15:47.166Z,3.20
2018-06-19T04:16:47.225Z,3.80
2018-06-19T04:17:47.285Z,4.10
2018-06-19T04:18:47.345Z,3.50
2018-06-19T04:19:47.404Z,3.60
2018-06-19T04:20:48.233Z,3.30
2018-06-19T04:21:47.525Z,3.10
2018-06-19T04:22:47.584Z,3.40
2018-06-19T04:23:47.643Z,3.30
2018-06-19T04:24:47.703Z,3.20
2018-06-19T04:25:47.805Z,3.70
2018-06-19T04:26:47.823Z,3.50
2018-06-19T04:27:47.882Z,3.70
2018-06-19T04:28:47.942Z,3.70
2018-06-19T04:29:48.002Z,3.70
2018-06-19T04:30:48.064Z,3.80
2018-06-19T04:31:48.122Z,4.10
2018-06-19T04:32:48.182Z,3.40
2018-06-19T04:33:48.242Z,3.90
2018-06-19T04:34:48.302Z,3.80
2018-06-19T04:35:48.361Z,3.80
2018-06-19T04:36:48.421Z,3.80
2018-06-19T04:37:48.481Z,3.50
2018-06-19T04:38:48.547Z,3.70
2018-06-19T04:39:48.604Z,3.60
2018-06-19T04:40:48.661Z,4.20
2018-06-19T04:41:48.721Z,3.90
2018-06-19T04:42:48.782Z,4.00
2018-06-19T04:43:49.092Z,3.50
2018-06-19T04:44:48.902Z,3.60
2018-06-19T04:45:48.962Z,3.80
2018-06-19T04:46:49.022Z,3.20
2018-06-19T04:47:49.081Z,3.60
2018-06-19T04:48:49.142Z,3.80
2018-06-19T04:49:49.260Z,3.40
2018-06-19T04:50:49.263Z,3.50
2018-06-19T04:51:49.322Z,3.40
2018-06-19T04:52:49.383Z,3.40
2018-06-19T04:53:49.442Z,3.70
2018-06-19T04:54:49.503Z,4.00
2018-06-19T04:55:49.563Z,3.70
2018-06-19T04:56:49.624Z,3.70
2018-06-19T04:57:49.690Z,3.50
2018-06-19T04:58:49.747Z,4.00
2018-06-19T04:59:49.803Z,3.60
2018-06-19T05:00:49.864Z,4.00
2018-06-19T05:01:50.176Z,3.90
2018-06-19T05:02:49.991Z,4.30
2018-06-19T05:03:50.111Z,4.10
2018-06-19T05:04:50.106Z,3.70
2018-06-19T05:05:50.167Z,3.80
2018-06-19T05:06:50.229Z,4.00
2018-06-19T05:07:50.287Z,3.40
2018-06-19T05:08:50.349Z,3.70
2018-06-19T05:09:50.409Z,3.90
2018-06-19T05:10:50.470Z,3.50
2018-06-19T05:11:50.534Z,3.80
2018-06-19T05:12:50.629Z,3.80
2018-06-19T05:13:50.652Z,3.80
2018-06-19T05:14:50.713Z,4.10
2018-06-19T05:15:51.193Z,3.50
2018-06-19T05:16:50.834Z,3.50
2018-06-19T05:17:50.896Z,3.70
2018-06-19T05:18:50.957Z,3.60
2018-06-19T05:20:39.073Z,3.10
2018-06-19T05:21:39.217Z,3.50
2018-06-19T05:22:39.191Z,3.40
2018-06-19T05:23:38.654Z,3.30
2018-06-19T05:24:38.715Z,3.20
2018-06-19T05:25:38.776Z,3.60
2018-06-19T05:26:38.839Z,3.10
2018-06-19T05:27:38.898Z,3.30
2018-06-19T05:28:38.971Z,3.00
2018-06-19T05:29:39.036Z,3.20
2018-06-19T05:30:39.105Z,3.40
2018-06-19T05:31:39.174Z,3.40
2018-06-19T05:32:39.204Z,3.40
2018-06-19T05:33:39.270Z,3.40
2018-06-19T05:34:39.326Z,3.30
2018-06-19T05:35:39.420Z,3.10
2018-06-19T05:36:39.481Z,3.70
2018-06-19T05:37:39.541Z,3.40
2018-06-19T05:38:39.601Z,3.80
2018-06-19T05:39:39.633Z,3.40
2018-06-19T05:40:39.695Z,3.60
2018-06-19T05:41:39.758Z,3.40
2018-06-19T05:42:40.346Z,3.60
2018-06-19T05:43:39.914Z,3.50
2018-06-19T05:44:39.941Z,3.50
2018-06-19T05:45:40.005Z,3.50
2018-06-19T05:46:40.065Z,3.40
2018-06-19T05:47:40.127Z,3.30
2018-06-19T05:48:40.189Z,3.60
2018-06-19T05:49:40.251Z,3.70
2018-06-19T05:50:40.312Z,3.60
2018-06-19T05:51:40.381Z,3.40
2018-06-19T05:52:40.437Z,3.40
2018-06-19T05:53:40.498Z,3.30
2018-06-19T05:54:40.561Z,3.60
2018-06-19T05:55:40.623Z,3.20
2018-06-19T05:56:40.685Z,3.60
2018-06-19T05:57:40.747Z,3.40
2018-06-19T05:58:40.811Z,3.40
2018-06-19T05:59:40.871Z,3.20
2018-06-19T06:00:40.934Z,3.30
2018-06-19T06:01:40.996Z,3.40
2018-06-19T06:02:41.059Z,3.70
2018-06-19T06:03:41.122Z,3.30
2018-06-19T06:04:41.183Z,3.70
2018-06-19T06:05:41.298Z,3.70
2018-06-19T06:06:41.307Z,3.50
2018-06-19T06:07:41.369Z,3.20
2018-06-19T06:08:41.432Z,3.50
2018-06-19T06:09:41.495Z,3.20
2018-06-19T06:10:41.558Z,3.30
2018-06-19T06:11:41.621Z,3.20
2018-06-19T06:12:41.684Z,3.50
2018-06-19T06:13:41.748Z,3.30
2018-06-19T06:14:41.806Z,3.10
2018-06-19T06:15:41.914Z,3.00
2018-06-19T06:16:42.024Z,3.10
2018-06-19T06:17:41.995Z,3.30
2018-06-19T06:18:42.058Z,3.40
2018-06-19T06:19:42.119Z,3.40
2018-06-19T06:20:42.182Z,3.20
2018-06-19T06:21:42.248Z,3.10
2018-06-19T06:22:42.308Z,3.00
2018-06-19T06:23:42.370Z,2.90
2018-06-19T06:25:30.006Z,3.30
2018-06-19T06:26:30.068Z,3.60
2018-06-19T06:27:30.130Z,3.20
2018-06-19T06:28:30.192Z,3.40
2018-06-19T06:29:30.255Z,3.30
2018-06-19T06:30:30.329Z,3.10
2018-06-19T06:31:30.383Z,3.50
2018-06-19T06:32:30.443Z,3.00
2018-06-19T06:33:30.504Z,3.70
2018-06-19T06:34:30.567Z,3.10
2018-06-19T06:35:30.632Z,3.00
2018-06-19T06:36:30.692Z,3.10
2018-06-19T06:37:30.755Z,3.10
2018-06-19T06:38:30.818Z,3.30
2018-06-19T06:39:30.880Z,2.80
2018-06-19T06:40:31.016Z,3.20
2018-06-19T06:41:31.006Z,3.20
2018-06-19T06:42:31.068Z,3.10
2018-06-19T06:43:31.131Z,2.70
2018-06-19T06:44:31.196Z,3.20
2018-06-19T06:45:31.257Z,3.20
2018-06-19T06:46:31.319Z,2.90
2018-06-19T06:47:31.382Z,3.00
2018-06-19T06:48:31.444Z,3.40
2018-06-19T06:49:31.514Z,3.20
2018-06-19T06:50:31.574Z,3.40
2018-06-19T06:51:31.634Z,3.30
2018-06-19T06:52:31.696Z,3.10
2018-06-19T06:53:31.759Z,3.20
2018-06-19T06:54:31.822Z,3.10
2018-06-19T06:55:31.884Z,3.10
2018-06-19T06:56:31.947Z,3.10
2018-06-19T06:57:32.011Z,3.20
2018-06-19T06:58:32.072Z,3.00
2018-06-19T06:59:32.137Z,3.10
2018-06-19T07:00:32.197Z,3.10
2018-06-19T07:01:32.261Z,2.80
2018-06-19T07:02:32.326Z,2.90
2018-06-19T07:03:32.389Z,3.60
2018-06-19T07:04:32.450Z,3.00
2018-06-19T07:05:32.513Z,3.10
2018-06-19T07:06:32.581Z,3.00
2018-06-19T07:07:32.638Z,3.20
2018-06-19T07:08:32.700Z,2.70
2018-06-19T07:09:32.764Z,3.30
2018-06-19T07:10:32.827Z,2.80
2018-06-19T07:11:32.891Z,3.20
2018-06-19T07:12:32.953Z,3.30
2018-06-19T07:13:33.036Z,3.20
2018-06-19T07:14:33.083Z,3.40
2018-06-19T07:15:33.148Z,3.20
2018-06-19T07:16:33.803Z,3.20
2018-06-19T07:17:33.267Z,3.10
2018-06-19T07:18:33.329Z,2.70
2018-06-19T07:19:34.073Z,3.10
2018-06-19T07:20:33.458Z,2.90
2018-06-19T07:21:33.518Z,3.10
2018-06-19T07:22:33.610Z,3.10
2018-06-19T07:23:33.644Z,3.00
2018-06-19T07:24:33.707Z,3.00
2018-06-19T07:25:33.770Z,2.90
2018-06-19T07:26:33.833Z,3.10
2018-06-19T07:27:33.898Z,2.80
2018-06-19T07:28:33.958Z,3.00
2018-06-19T07:29:34.030Z,3.10
2018-06-19T07:30:34.088Z,3.00
2018-06-19T07:31:34.149Z,3.10
2018-06-19T07:32:34.211Z,3.20
2018-06-19T07:33:34.275Z,3.10
2018-06-19T07:34:34.337Z,2.80
2018-06-19T07:35:34.401Z,2.90
2018-06-19T07:36:34.463Z,3.10
2018-06-19T07:37:34.527Z,3.00
2018-06-19T07:38:34.592Z,3.40
2018-06-19T07:39:34.658Z,2.70
2018-06-19T07:40:34.716Z,3.20
2018-06-19T07:41:34.780Z,3.10
2018-06-19T07:42:34.842Z,2.90
2018-06-19T07:43:34.910Z,3.00
2018-06-19T07:44:34.968Z,2.80
2018-06-19T07:45:35.032Z,3.40
2018-06-19T07:46:35.095Z,2.90
2018-06-19T07:47:35.163Z,3.10
2018-06-19T07:48:35.221Z,3.60
2018-06-19T07:49:35.289Z,3.60
2018-06-19T07:50:35.348Z,3.20
2018-06-19T07:51:35.411Z,3.00
2018-06-19T07:52:35.474Z,3.80
2018-06-19T07:53:35.537Z,3.20
2018-06-19T07:54:35.853Z,3.00
2018-06-19T07:55:35.673Z,3.10
2018-06-19T07:56:35.731Z,3.00
2018-06-19T07:57:35.790Z,2.90
2018-06-19T07:58:35.856Z,3.20
2018-06-19T07:59:35.919Z,3.10
2018-06-19T08:00:35.986Z,3.20
2018-06-19T08:01:36.045Z,3.20
2018-06-19T08:02:36.108Z,3.20
2018-06-19T08:03:36.173Z,3.00
2018-06-19T08:04:36.236Z,3.00
2018-06-19T08:05:36.299Z,3.00
2018-06-19T08:06:36.363Z,3.10
2018-06-19T08:07:36.431Z,3.80
2018-06-19T08:08:36.491Z,3.10
2018-06-19T08:09:36.553Z,2.80
2018-06-19T08:10:36.618Z,2.90
2018-06-19T08:11:36.687Z,3.00
2018-06-19T08:12:36.744Z,3.00
2018-06-19T08:13:36.959Z,2.80
2018-06-19T08:14:36.873Z,3.20
2018-06-19T08:15:36.937Z,2.80
2018-06-19T08:16:37.001Z,3.00
2018-06-19T08:17:37.064Z,2.80
2018-06-19T08:18:37.128Z,3.00
2018-06-19T08:19:37.197Z,3.20
2018-06-19T08:20:37.256Z,2.80
2018-06-19T08:21:37.321Z,2.90
2018-06-19T08:22:37.637Z,2.90
2018-06-19T08:23:37.449Z,2.80
2018-06-19T08:24:37.514Z,3.00
2018-06-19T08:25:37.578Z,2.60
2018-06-19T08:26:37.643Z,2.70
2018-06-19T08:27:37.706Z,2.90
2018-06-19T08:28:37.770Z,2.80
2018-06-19T08:29:37.835Z,2.50
2018-06-19T08:30:37.899Z,2.70
2018-06-19T08:31:37.964Z,2.90
2018-06-19T08:32:38.027Z,2.90
2018-06-19T08:33:38.092Z,2.40
2018-06-19T08:34:38.157Z,2.90
2018-06-19T08:35:38.221Z,3.00
2018-06-19T08:36:38.285Z,2.70
2018-06-19T08:37:38.350Z,2.50
2018-06-19T08:38:38.416Z,2.70
2018-06-19T08:39:38.479Z,3.00
2018-06-19T08:40:38.544Z,3.10
2018-06-19T08:41:38.609Z,2.90
2018-06-19T08:42:38.674Z,2.80
2018-06-19T08:43:38.738Z,2.60
2018-06-19T08:44:38.801Z,2.30
2018-06-19T08:45:38.868Z,2.50
2018-06-19T08:46:38.933Z,2.30
2018-06-19T08:47:38.998Z,2.40
2018-06-19T08:48:39.064Z,2.40
2018-06-19T08:49:39.136Z,2.40
2018-06-19T08:50:39.194Z,2.50
2018-06-19T08:51:39.258Z,2.40
2018-06-19T08:52:39.323Z,2.50
2018-06-19T08:53:39.388Z,2.00
2018-06-19T08:54:39.454Z,2.10
2018-06-19T08:55:39.519Z,2.40
2018-06-19T08:56:39.584Z,2.70
2018-06-19T08:57:39.655Z,2.50
2018-06-19T08:58:39.715Z,2.50
2018-06-19T08:59:39.780Z,2.50
2018-06-19T09:00:39.847Z,2.60
2018-06-19T09:01:39.910Z,2.60
2018-06-19T09:02:39.976Z,3.30
2018-06-19T09:03:40.043Z,3.10
2018-06-19T09:04:40.107Z,3.00
2018-06-19T09:05:40.173Z,2.70
2018-06-19T09:06:40.238Z,2.70
2018-06-19T09:07:40.304Z,2.40
2018-06-19T09:08:40.369Z,2.30
2018-06-19T09:09:40.436Z,2.30
2018-06-19T09:10:40.502Z,2.50
2018-06-19T09:11:40.567Z,2.10
2018-06-19T09:12:40.633Z,2.30
2018-06-19T09:13:40.699Z,2.20
2018-06-19T09:14:40.765Z,2.50
2018-06-19T09:15:40.831Z,2.20
2018-06-19T09:16:40.900Z,2.40
2018-06-19T09:17:40.963Z,2.00
2018-06-19T09:18:41.029Z,2.20
2018-06-19T09:19:41.096Z,2.30
2018-06-19T09:20:41.160Z,2.20
2018-06-19T09:21:41.263Z,2.20
2018-06-19T09:22:41.293Z,2.30
2018-06-19T09:23:41.359Z,2.10
2018-06-19T09:24:41.425Z,2.10
2018-06-19T09:25:41.492Z,2.30
2018-06-19T09:26:41.559Z,2.00
2018-06-19T09:27:41.625Z,2.20
2018-06-19T09:28:41.691Z,2.10
2018-06-19T09:29:41.758Z,2.00
2018-06-19T09:30:41.842Z,2.00
2018-06-19T09:31:42.020Z,2.20
2018-06-19T09:32:41.959Z,2.10
2018-06-19T09:33:42.399Z,2.10
2018-06-19T09:34:42.093Z,2.00
2018-06-19T09:35:42.161Z,2.20
2018-06-19T09:36:42.224Z,2.30
2018-06-19T09:37:42.293Z,2.30
2018-06-19T09:38:42.928Z,2.70
2018-06-19T09:39:42.442Z,2.40
2018-06-19T09:40:42.491Z,2.30
2018-06-19T09:41:42.557Z,2.10
2018-06-19T09:42:42.627Z,2.10
2018-06-19T09:43:42.695Z,2.20
2018-06-19T09:44:42.756Z,2.50
2018-06-19T09:45:42.824Z,2.00
2018-06-19T09:46:42.891Z,2.40
2018-06-19T09:47:42.958Z,2.30
2018-06-19T09:48:43.026Z,2.60
2018-06-19T09:49:43.096Z,2.20
2018-06-19T09:50:43.158Z,2.50
2018-06-19T09:51:43.226Z,2.30
2018-06-19T09:52:43.292Z,2.20
2018-06-19T09:53:43.370Z,2.30
2018-06-19T09:54:43.428Z,2.20
2018-06-19T09:55:43.495Z,2.10
2018-06-19T09:56:43.562Z,2.10
2018-06-19T09:57:43.661Z,2.20
2018-06-19T09:58:43.695Z,2.00
2018-06-19T09:59:43.763Z,1.70
2018-06-19T10:00:43.829Z,2.30
2018-06-19T10:01:43.897Z,2.10
2018-06-19T10:02:43.964Z,2.10
2018-06-19T10:03:44.030Z,2.30
2018-06-19T10:04:44.097Z,2.10
2018-06-19T10:05:44.302Z,2.10
2018-06-19T10:06:44.585Z,2.30
2018-06-19T10:07:44.680Z,2.00
2018-06-19T10:08:44.362Z,1.80
2018-06-19T10:09:44.427Z,1.70
2018-06-19T10:10:44.497Z,2.00
2018-06-19T10:11:44.561Z,2.00
2018-06-19T10:12:44.670Z,1.90
2018-06-19T10:13:44.692Z,1.90
2018-06-19T10:14:44.758Z,2.20
2018-06-19T10:15:44.823Z,2.00
2018-06-19T10:16:44.890Z,2.00
2018-06-19T10:17:45.336Z,2.20
2018-06-19T10:18:45.020Z,2.20
2018-06-19T10:19:45.090Z,2.10
2018-06-19T10:20:45.151Z,1.80
2018-06-19T10:21:45.216Z,1.90
2018-06-19T10:22:45.286Z,2.10
2018-06-19T10:23:45.350Z,2.10
2018-06-19T10:24:45.417Z,2.10
2018-06-19T10:25:45.479Z,1.90
2018-06-19T10:26:45.546Z,2.10
2018-06-19T10:27:45.623Z,2.20
2018-06-19T10:28:45.679Z,2.20
2018-06-19T10:29:45.745Z,3.10
2018-06-19T10:30:45.809Z,1.90
2018-06-19T10:31:45.875Z,1.80
2018-06-19T10:32:45.940Z,2.00
2018-06-19T10:33:46.007Z,2.10
2018-06-19T10:34:46.073Z,1.80
2018-06-19T10:35:46.149Z,1.80
2018-06-19T10:36:46.205Z,2.10
2018-06-19T10:37:46.272Z,1.80
2018-06-19T10:38:46.344Z,2.00
2018-06-19T10:39:46.452Z,1.70
2018-06-19T10:40:46.472Z,2.40
2018-06-19T10:41:46.539Z,1.70
2018-06-19T10:42:46.604Z,1.80
2018-06-19T10:43:46.671Z,1.60
2018-06-19T10:44:46.736Z,1.70
2018-06-19T10:45:46.804Z,1.60
2018-06-19T10:46:46.870Z,1.90
2018-06-19T10:47:46.936Z,1.70
2018-06-19T10:48:47.001Z,1.90
2018-06-19T10:49:47.068Z,1.80
2018-06-19T10:50:47.134Z,1.70
2018-06-19T10:51:47.200Z,1.60
2018-06-19T10:52:47.302Z,2.00
2018-06-19T10:53:47.333Z,1.70
2018-06-19T10:54:47.397Z,1.70
2018-06-19T10:55:47.464Z,1.70
2018-06-19T10:56:47.528Z,1.80
2018-06-19T10:57:47.595Z,2.00
2018-06-19T10:58:47.665Z,1.80
2018-06-19T10:59:47.727Z,1.70
2018-06-19T11:00:47.792Z,1.80
2018-06-19T11:01:47.858Z,1.90
2018-06-19T11:02:47.924Z,1.60
2018-06-19T11:03:47.991Z,2.00
2018-06-19T11:04:48.055Z,1.70
2018-06-19T11:05:48.120Z,1.70
2018-06-19T11:06:48.187Z,1.70
2018-06-19T11:07:48.252Z,1.80
2018-06-19T11:08:48.467Z,1.90
2018-06-19T11:09:48.382Z,1.60
2018-06-19T11:10:48.448Z,1.90
2018-06-19T11:11:48.513Z,1.60
2018-06-19T11:12:48.580Z,1.70
2018-06-19T11:13:48.643Z,1.90
2018-06-19T11:14:48.710Z,1.90
2018-06-19T11:15:48.778Z,1.50
2018-06-19T11:16:48.842Z,2.00
2018-06-19T11:17:48.906Z,1.60
2018-06-19T11:18:48.971Z,1.90
2018-06-19T11:19:49.037Z,1.70
2018-06-19T11:20:49.104Z,1.50
2018-06-19T11:21:49.168Z,1.50
2018-06-19T11:22:49.234Z,1.60
2018-06-19T11:23:49.303Z,1.70
2018-06-19T11:24:49.365Z,1.60
2018-06-19T11:25:49.431Z,1.60
2018-06-19T11:26:49.496Z,1.50
2018-06-19T11:27:49.562Z,1.50
2018-06-19T11:28:49.628Z,1.80
2018-06-19T11:29:49.694Z,1.60
2018-06-19T11:30:49.760Z,1.40
2018-06-19T11:31:49.826Z,1.50
2018-06-19T11:32:49.893Z,1.50
2018-06-19T11:33:49.959Z,1.20
2018-06-19T11:34:50.024Z,1.90
2018-06-19T11:35:50.091Z,1.60
2018-06-19T11:36:50.155Z,1.30
2018-06-19T11:37:50.221Z,1.40
2018-06-19T11:38:50.288Z,1.20
2018-06-19T11:39:50.352Z,1.40
2018-06-19T11:40:50.417Z,1.40
2018-06-19T11:41:50.484Z,1.50
2018-06-19T11:42:50.550Z,1.40
2018-06-19T11:43:50.615Z,1.60
2018-06-19T11:44:50.690Z,1.60
2018-06-19T11:45:50.747Z,1.50
2018-06-19T11:46:50.814Z,1.50
2018-06-19T11:47:50.879Z,1.80
2018-06-19T11:48:50.945Z,1.60
2018-06-19T11:49:51.011Z,1.50
2018-06-19T11:50:51.079Z,1.40
2018-06-19T11:51:51.150Z,1.50
2018-06-19T11:52:51.210Z,1.80
2018-06-19T11:53:51.278Z,1.50
2018-06-19T11:54:51.597Z,1.30
2018-06-19T11:55:51.411Z,1.50
2018-06-19T11:56:51.538Z,1.60
2018-06-19T11:57:51.545Z,1.40
2018-06-19T11:58:51.612Z,1.60
2018-06-19T11:59:51.679Z,1.30
2018-06-19T12:00:51.746Z,1.50
2018-06-19T12:01:51.852Z,1.50
2018-06-19T12:02:51.881Z,1.50
2018-06-19T12:03:51.949Z,1.40
2018-06-19T12:04:52.165Z,1.70
2018-06-19T12:05:52.084Z,1.30
2018-06-19T12:06:52.151Z,1.60
2018-06-19T12:07:52.218Z,1.70
2018-06-19T12:08:52.284Z,1.50
2018-06-19T12:09:52.351Z,1.50
2018-06-19T12:10:52.570Z,1.60
2018-06-19T12:11:52.487Z,1.40
2018-06-19T12:12:52.555Z,1.40
2018-06-19T12:13:52.622Z,1.60
2018-06-19T12:14:52.689Z,1.40
2018-06-19T12:15:52.761Z,1.80
2018-06-19T12:16:52.822Z,1.50
2018-06-19T12:17:52.891Z,1.70
2018-06-19T12:18:52.958Z,1.50
2018-06-19T12:19:53.030Z,1.40
2018-06-19T12:20:53.093Z,1.70
2018-06-19T12:21:53.160Z,1.30
2018-06-19T12:22:53.228Z,1.40
2018-06-19T12:23:53.335Z,1.40
2018-06-19T12:24:53.369Z,1.60
2018-06-19T12:25:53.431Z,1.60
2018-06-19T12:26:53.543Z,1.60
2018-06-19T12:27:53.565Z,1.50
2018-06-19T12:28:53.634Z,1.80
2018-06-19T12:29:53.701Z,1.60
2018-06-19T12:30:53.769Z,1.40
2018-06-19T12:31:53.841Z,1.60
2018-06-19T12:32:53.905Z,1.60
2018-06-19T12:33:53.975Z,1.40
2018-06-19T12:34:54.052Z,1.60
2018-06-19T12:35:54.108Z,1.40
2018-06-19T12:36:54.179Z,1.50
2018-06-19T12:37:54.244Z,1.40
2018-06-19T12:38:54.312Z,1.70
2018-06-19T12:39:54.382Z,1.80
2018-06-19T12:40:54.449Z,1.40
2018-06-19T12:41:54.517Z,1.60
2018-06-19T12:42:54.612Z,1.50
2018-06-19T12:43:54.655Z,1.50
2018-06-19T12:44:54.873Z,1.70
2018-06-19T12:45:54.795Z,1.40
2018-06-19T12:46:54.925Z,1.40
2018-06-19T12:47:54.930Z,1.40
2018-06-19T12:48:54.999Z,1.40
2018-06-19T12:49:55.124Z,1.40
2018-06-19T12:50:55.140Z,1.30
2018-06-19T12:51:55.208Z,1.10
2018-06-19T12:52:55.317Z,1.10
2018-06-19T12:53:55.347Z,1.30
2018-06-19T12:54:55.417Z,1.20
2018-06-19T12:55:56.133Z,1.20
2018-06-19T12:56:55.806Z,1.20
2018-06-19T12:57:55.625Z,1.40
2018-06-19T12:58:55.698Z,1.40
2018-06-19T12:59:55.767Z,1.40
2018-06-19T13:00:55.840Z,1.50
2018-06-19T13:01:55.907Z,1.50
2018-06-19T13:02:55.976Z,1.50
2018-06-19T13:03:56.045Z,1.40
2018-06-19T13:04:56.116Z,1.40
2018-06-19T13:05:56.186Z,1.40
2018-06-19T13:06:56.256Z,1.20
2018-06-19T13:07:56.326Z,1.50
2018-06-19T13:08:56.395Z,1.50
2018-06-19T13:09:56.466Z,1.30
2018-06-19T13:10:56.538Z,1.20
2018-06-19T13:11:56.978Z,1.60
2018-06-19T13:12:56.675Z,1.30
2018-06-19T13:13:56.745Z,1.20
2018-06-19T13:14:56.815Z,1.40
2018-06-19T13:15:56.884Z,1.30
2018-06-19T13:16:56.954Z,1.50
2018-06-19T13:17:57.024Z,1.60
2018-06-19T13:18:57.841Z,1.40
2018-06-19T13:19:57.834Z,1.50
2018-06-19T13:20:57.232Z,1.50